Steinbach, Canada
Current Conditions -  °F | °C
As of 2:00 AM on Saturday 29 Nov 2014 (Local Time) from CYWG Reporting Station
Light Snow Light Snow  
Wind Chill:   Ceiling: 1800
Heat Index: 14°   Visibility: 6mi
Dew Point: 10°   Wind: 8mph
Humidity: 86%   Direction: 140°SE
Pressure: 29.56"   Gusts: NA
Location:  49.52°N, 96.68°W
Report Text: CYWG 290800Z 14007KT 6SM -SN OVC018 M10/M12 A2956 RMK SC8 PRESRR SLP028
Loading
Personal Weather Stations






























Interactive Weather Map New forecast layout! Learn more

10-Day Weather Forecast

Advertisements
Track Severe Weather on mobile